Terminal Aerodrome Forecast
Issued by NWS

Home | Current Version | Previous Version | Text Only | Print | Product List | Glossary On
Versions: 1 2 3 4 5 6 7 8 9 10 11 12 13 14 15 16
000
FTUS44 KMAF 250809 AAA
TAFFST
TAF AMD
KFST 250809Z 2508/2606 17010KT P6SM -SHRA BKN070 BKN100
     FM251000 10007KT P6SM BKN050 BKN100
      TEMPO 2510/2514 6SM TSRA BR BKN040CB
     FM251400 36010KT 5SM TSRA BR BKN030CB
     FM252100 01015G25KT 3SM TSRA BR OVC020CB=

USA.gov is the U.S. government's official web portal to all federal, state and local government web resources and services.